Time;durP1;ratioP1;P1;durP2;ratioP2;P2;SDS_P1;SDS_P2;PMS_P1;PMS_P2;Temp;Humidity;BMP_temperature;BMP_pressure;BME280_temperature;BME280_humidity;BME280_pressure;Samples;Min_cycle;Max_cycle;Signal;HPM_P1;HPM_P2
2021/03/20 00:00:19;;;;;;;9.65;5.55;;;;;;;;;;4988283;28;20042;-65
2021/03/20 00:02:45;;;;;;;12.00;6.60;;;;;;;;;;4986438;28;20490;-65
2021/03/20 00:05:10;;;;;;;7.30;4.25;;;;;;;;;;4991144;28;20030;-65
2021/03/20 00:07:36;;;;;;;11.85;8.85;;;;;;;;;;4991324;28;20038;-67
2021/03/20 00:10:03;;;;;;;11.07;5.15;;;;;;;;;;4991305;28;20026;-65
2021/03/20 00:12:28;;;;;;;7.30;6.03;;;;;;;;;;4991273;28;20038;-65
2021/03/20 00:14:53;;;;;;;13.60;2.47;;;;;;;;;;4990989;28;20030;-65
2021/03/20 00:17:19;;;;;;;8.30;2.08;;;;;;;;;;4991312;28;20111;-65
2021/03/20 00:19:44;;;;;;;4.97;3.83;;;;;;;;;;4985390;28;20165;-65
2021/03/20 00:22:09;;;;;;;4.85;2.42;;;;;;;;;;4989865;28;20101;-65
2021/03/20 00:24:34;;;;;;;8.52;2.97;;;;;;;;;;4991043;28;20029;-65
2021/03/20 00:27:00;;;;;;;5.82;3.03;;;;;;;;;;4991233;28;20026;-65
2021/03/20 00:29:25;;;;;;;5.18;2.70;;;;;;;;;;4985657;28;20096;-65
2021/03/20 00:31:50;;;;;;;4.53;3.92;;;;;;;;;;4986927;28;20058;-65
2021/03/20 00:34:16;;;;;;;9.95;6.35;;;;;;;;;;4991387;28;20082;-65
2021/03/20 00:36:41;;;;;;;18.77;9.50;;;;;;;;;;4990829;28;20061;-65
2021/03/20 00:39:07;;;;;;;4.53;1.63;;;;;;;;;;4991076;28;20445;-65
2021/03/20 00:41:32;;;;;;;6.07;1.42;;;;;;;;;;4991175;28;20477;-65
2021/03/20 00:43:58;;;;;;;13.77;1.60;;;;;;;;;;4991069;28;20049;-65
2021/03/20 00:46:23;;;;;;;10.50;6.28;;;;;;;;;;4991126;28;20057;-65
2021/03/20 00:48:48;;;;;;;4.28;2.40;;;;;;;;;;4991142;28;20015;-65
2021/03/20 00:51:13;;;;;;;8.95;5.03;;;;;;;;;;4990950;28;20033;-65
2021/03/20 00:53:39;;;;;;;10.77;4.47;;;;;;;;;;4990900;28;20046;-65
2021/03/20 00:56:04;;;;;;;5.22;2.70;;;;;;;;;;4990691;28;20077;-65
2021/03/20 00:58:34;;;;;;;5.70;3.90;;;;;;;;;;4990910;28;20026;-65
2021/03/20 01:01:04;;;;;;;2.67;1.73;;;;;;;;;;4988536;28;20122;-69
2021/03/20 01:03:30;;;;;;;7.35;0.93;;;;;;;;;;4989028;28;20053;-68
2021/03/20 01:05:56;;;;;;;3.60;0.93;;;;;;;;;;4991075;28;20038;-69
2021/03/20 01:08:21;;;;;;;3.72;1.60;;;;;;;;;;4988279;28;20030;-69
2021/03/20 01:10:48;;;;;;;3.33;0.82;;;;;;;;;;4990809;28;20110;-69
2021/03/20 01:13:14;;;;;;;4.68;1.17;;;;;;;;;;4990825;28;20037;-69
2021/03/20 01:15:40;;;;;;;3.20;1.27;;;;;;;;;;4993038;28;20508;-69
2021/03/20 01:18:05;;;;;;;4.00;0.70;;;;;;;;;;4994247;28;20049;-69
2021/03/20 01:20:31;;;;;;;1.17;0.38;;;;;;;;;;4994533;28;20382;-69
2021/03/20 01:22:56;;;;;;;2.78;1.10;;;;;;;;;;4994092;28;20037;-69
2021/03/20 01:25:21;;;;;;;9.85;2.47;;;;;;;;;;4993894;28;20034;-69
2021/03/20 01:27:51;;;;;;;9.88;1.45;;;;;;;;;;4991215;28;20034;-69
2021/03/20 01:30:17;;;;;;;3.75;1.65;;;;;;;;;;4994283;28;20030;-69
2021/03/20 01:32:43;;;;;;;3.38;1.27;;;;;;;;;;4994015;28;20045;-69
2021/03/20 01:35:08;;;;;;;12.55;1.75;;;;;;;;;;4994016;28;20377;-68
2021/03/20 01:37:33;;;;;;;3.00;1.50;;;;;;;;;;4994034;28;20027;-69
2021/03/20 01:39:59;;;;;;;6.65;1.42;;;;;;;;;;4994327;28;20477;-68
2021/03/20 01:42:24;;;;;;;14.23;1.60;;;;;;;;;;4993908;28;20037;-68
2021/03/20 01:45:06;;;;;;;8.13;1.73;;;;;;;;;;4993905;28;20037;-69
2021/03/20 01:47:32;;;;;;;6.25;1.40;;;;;;;;;;4993757;28;20027;-68
2021/03/20 01:49:58;;;;;;;3.38;1.67;;;;;;;;;;4993949;28;20039;-68
2021/03/20 01:52:32;;;;;;;3.53;0.85;;;;;;;;;;4993849;28;20022;-68
2021/03/20 01:55:03;;;;;;;5.07;0.75;;;;;;;;;;4993768;28;20345;-68
2021/03/20 01:57:32;;;;;;;2.25;1.42;;;;;;;;;;4992592;28;20018;-69
2021/03/20 01:59:58;;;;;;;6.57;0.60;;;;;;;;;;4993037;28;20025;-68
2021/03/20 02:02:23;;;;;;;2.70;0.82;;;;;;;;;;4993644;28;20121;-68
2021/03/20 02:04:48;;;;;;;1.60;0.63;;;;;;;;;;4993460;28;20037;-68
2021/03/20 02:07:14;;;;;;;0.82;0.35;;;;;;;;;;4993469;28;20122;-69
2021/03/20 02:09:39;;;;;;;4.05;0.60;;;;;;;;;;4975813;28;20061;-68
2021/03/20 02:12:13;;;;;;;3.20;1.42;;;;;;;;;;4988906;28;20530;-68
2021/03/20 02:14:39;;;;;;;4.05;0.93;;;;;;;;;;4990554;28;20034;-67
2021/03/20 02:17:11;;;;;;;0.82;0.63;;;;;;;;;;4993322;28;20023;-66
2021/03/20 02:19:59;;;;;;;4.55;0.45;;;;;;;;;;4993061;28;20037;-66
2021/03/20 02:22:30;;;;;;;2.80;0.95;;;;;;;;;;4987171;28;20034;-66
2021/03/20 02:25:14;;;;;;;0.73;0.20;;;;;;;;;;4990923;28;20034;-66
2021/03/20 02:27:39;;;;;;;1.17;0.50;;;;;;;;;;4993332;28;20035;-63
2021/03/20 02:30:13;;;;;;;1.50;0.60;;;;;;;;;;4994941;28;20031;-63
2021/03/20 02:32:59;;;;;;;1.05;0.55;;;;;;;;;;4994561;28;20477;-64
2021/03/20 02:35:49;;;;;;;6.97;1.30;;;;;;;;;;4994077;28;20097;-64
2021/03/20 02:38:17;;;;;;;3.83;0.68;;;;;;;;;;4990077;28;20018;-63
2021/03/20 02:41:03;;;;;;;0.93;0.70;;;;;;;;;;4994253;28;20041;-64
2021/03/20 02:43:31;;;;;;;2.80;0.60;;;;;;;;;;4981570;28;20037;-63
2021/03/20 02:46:11;;;;;;;0.52;0.15;;;;;;;;;;4994562;28;20474;-64
2021/03/20 02:48:43;;;;;;;0.30;0.22;;;;;;;;;;4994188;28;20377;-63
2021/03/20 02:51:11;;;;;;;1.13;0.40;;;;;;;;;;4992184;28;20105;-63
2021/03/20 02:53:36;;;;;;;0.80;0.28;;;;;;;;;;4988166;28;20360;-64
2021/03/20 02:56:01;;;;;;;0.40;0.28;;;;;;;;;;4994606;28;20033;-65
2021/03/20 02:58:29;;;;;;;2.15;0.55;;;;;;;;;;4986739;28;20373;-66
2021/03/20 03:00:57;;;;;;;0.50;0.50;;;;;;;;;;4992604;28;20401;-66
2021/03/20 03:03:24;;;;;;;2.00;0.60;;;;;;;;;;4992549;28;20022;-63
2021/03/20 03:06:02;;;;;;;1.02;0.28;;;;;;;;;;4994182;28;20030;-63
2021/03/20 03:08:29;;;;;;;1.13;0.40;;;;;;;;;;4993782;28;20109;-63
2021/03/20 03:11:12;;;;;;;0.35;0.15;;;;;;;;;;4994190;28;20033;-63
2021/03/20 03:13:48;;;;;;;0.82;0.47;;;;;;;;;;4992410;28;20993;-66
2021/03/20 03:16:13;;;;;;;1.10;0.47;;;;;;;;;;4992610;28;20365;-67
2021/03/20 03:18:42;;;;;;;1.45;0.20;;;;;;;;;;4992038;28;20026;-66
2021/03/20 03:21:08;;;;;;;0.77;0.32;;;;;;;;;;4992502;28;20031;-66
2021/03/20 03:23:36;;;;;;;2.05;0.88;;;;;;;;;;4991820;28;20037;-66
2021/03/20 03:26:07;;;;;;;2.85;0.93;;;;;;;;;;4992506;28;20022;-67
2021/03/20 03:28:33;;;;;;;4.43;0.85;;;;;;;;;;4992061;28;20033;-66
2021/03/20 03:30:59;;;;;;;1.75;0.15;;;;;;;;;;4992350;28;20022;-66
2021/03/20 03:33:25;;;;;;;1.85;0.35;;;;;;;;;;4991647;28;20381;-66
2021/03/20 03:35:52;;;;;;;7.95;0.55;;;;;;;;;;4992259;28;20113;-66
2021/03/20 03:38:32;;;;;;;0.35;0.22;;;;;;;;;;4991352;28;20026;-66
2021/03/20 03:41:16;;;;;;;0.80;0.45;;;;;;;;;;4992272;28;20029;-66
2021/03/20 03:43:42;;;;;;;0.35;0.35;;;;;;;;;;4985674;28;20127;-63
2021/03/20 03:46:08;;;;;;;0.00;0.00;;;;;;;;;;4989126;28;20045;-63
2021/03/20 03:48:33;;;;;;;3.50;0.52;;;;;;;;;;4991596;28;20034;-63
2021/03/20 03:51:09;;;;;;;6.18;0.30;;;;;;;;;;4991531;28;20026;-63
2021/03/20 03:53:35;;;;;;;0.30;0.10;;;;;;;;;;4991586;28;20033;-63
2021/03/20 03:56:02;;;;;;;0.52;0.20;;;;;;;;;;4991937;28;20035;-64
2021/03/20 03:58:28;;;;;;;2.10;0.65;;;;;;;;;;4991573;28;20024;-63
2021/03/20 04:01:02;;;;;;;0.10;0.10;;;;;;;;;;4991427;28;20042;-63
2021/03/20 04:03:39;;;;;;;1.02;0.15;;;;;;;;;;4991148;28;20593;-63
2021/03/20 04:06:10;;;;;;;0.28;0.15;;;;;;;;;;4992064;28;20030;-63
2021/03/20 04:08:44;;;;;;;1.17;0.20;;;;;;;;;;4991584;28;20037;-63
2021/03/20 04:11:45;;;;;;;0.52;0.25;;;;;;;;;;4988138;28;20270;-63
2021/03/20 04:14:23;;;;;;;0.98;0.57;;;;;;;;;;4925796;29;20483;-63
2021/03/20 04:16:51;;;;;;;2.28;0.38;;;;;;;;;;4983978;28;20042;-63
2021/03/20 04:19:29;;;;;;;0.70;0.25;;;;;;;;;;4991458;28;20019;-63
2021/03/20 04:22:09;;;;;;;0.10;0.10;;;;;;;;;;4991376;28;20389;-63
2021/03/20 04:24:51;;;;;;;1.23;1.00;;;;;;;;;;4991109;28;20037;-63
2021/03/20 04:27:18;;;;;;;1.60;1.10;;;;;;;;;;4973774;28;20097;-63
2021/03/20 04:30:03;;;;;;;0.85;0.20;;;;;;;;;;4991221;28;20041;-63
2021/03/20 04:32:40;;;;;;;1.48;0.77;;;;;;;;;;4991036;28;20034;-63
2021/03/20 04:35:08;;;;;;;4.13;0.88;;;;;;;;;;4992499;28;20058;-61
2021/03/20 04:37:36;;;;;;;8.25;1.05;;;;;;;;;;4992293;28;20058;-60
2021/03/20 04:40:04;;;;;;;1.90;0.85;;;;;;;;;;4992152;28;20073;-60
2021/03/20 04:42:30;;;;;;;5.53;0.50;;;;;;;;;;4986241;28;20069;-61
2021/03/20 04:44:59;;;;;;;0.47;0.28;;;;;;;;;;4992101;28;20031;-60
2021/03/20 04:47:25;;;;;;;3.40;1.17;;;;;;;;;;4992113;28;20711;-60
2021/03/20 04:49:55;;;;;;;2.60;1.30;;;;;;;;;;4993738;28;20069;-60
2021/03/20 04:52:24;;;;;;;1.02;0.50;;;;;;;;;;4995866;28;20080;-60
2021/03/20 04:54:49;;;;;;;4.32;1.08;;;;;;;;;;4993779;28;20031;-63
2021/03/20 04:57:19;;;;;;;1.70;0.82;;;;;;;;;;4978666;28;20528;-63
2021/03/20 04:59:49;;;;;;;3.83;0.73;;;;;;;;;;4989864;28;20053;-63
2021/03/20 05:02:33;;;;;;;3.90;1.20;;;;;;;;;;4995961;28;20541;-63
2021/03/20 05:05:01;;;;;;;1.98;0.65;;;;;;;;;;4994250;28;20018;-66
2021/03/20 05:07:28;;;;;;;2.47;1.60;;;;;;;;;;4994587;28;20093;-66
2021/03/20 05:09:57;;;;;;;1.58;0.40;;;;;;;;;;4994481;28;20027;-66
2021/03/20 05:12:26;;;;;;;1.67;0.20;;;;;;;;;;4994864;28;20034;-66
2021/03/20 05:14:54;;;;;;;1.30;0.57;;;;;;;;;;4991219;28;20030;-66
2021/03/20 05:17:21;;;;;;;3.92;1.65;;;;;;;;;;4994326;28;20027;-66
2021/03/20 05:19:46;;;;;;;4.20;1.15;;;;;;;;;;4994558;28;20027;-67
2021/03/20 05:22:23;;;;;;;1.73;0.70;;;;;;;;;;4976744;28;20049;-66
2021/03/20 05:24:49;;;;;;;4.47;1.13;;;;;;;;;;4994351;28;20014;-66
2021/03/20 05:27:17;;;;;;;1.80;0.80;;;;;;;;;;4991304;28;20465;-66
2021/03/20 05:29:42;;;;;;;2.15;0.60;;;;;;;;;;4994147;28;20030;-66
2021/03/20 05:32:08;;;;;;;6.78;0.77;;;;;;;;;;4991100;28;20028;-67
2021/03/20 05:34:33;;;;;;;1.30;0.55;;;;;;;;;;4994012;28;20508;-66
2021/03/20 05:36:58;;;;;;;9.27;1.67;;;;;;;;;;4993781;28;20030;-66
2021/03/20 05:39:24;;;;;;;1.38;0.47;;;;;;;;;;4993095;28;20069;-67
2021/03/20 05:41:49;;;;;;;10.13;1.10;;;;;;;;;;4993805;28;20027;-66
2021/03/20 05:44:14;;;;;;;0.20;0.20;;;;;;;;;;4993746;28;20054;-66
2021/03/20 05:46:40;;;;;;;0.77;0.40;;;;;;;;;;4991711;28;20030;-66
2021/03/20 05:49:19;;;;;;;1.15;0.65;;;;;;;;;;4993522;28;20497;-66
2021/03/20 05:51:50;;;;;;;0.25;0.20;;;;;;;;;;4993674;28;20038;-66
2021/03/20 05:54:15;;;;;;;6.28;0.80;;;;;;;;;;4993696;28;20030;-66
2021/03/20 05:56:43;;;;;;;2.45;0.95;;;;;;;;;;4993605;28;20034;-66
2021/03/20 05:59:12;;;;;;;0.63;0.38;;;;;;;;;;4974538;28;20373;-66
2021/03/20 06:01:43;;;;;;;1.80;0.28;;;;;;;;;;4991893;28;20049;-66
2021/03/20 06:04:27;;;;;;;1.10;0.45;;;;;;;;;;4987588;28;20385;-66
2021/03/20 06:06:58;;;;;;;1.88;0.30;;;;;;;;;;4993501;28;20038;-66
2021/03/20 06:09:46;;;;;;;2.17;0.82;;;;;;;;;;4993669;28;20054;-66
2021/03/20 06:12:17;;;;;;;3.75;0.63;;;;;;;;;;4993500;28;20093;-66
2021/03/20 06:14:47;;;;;;;1.95;0.98;;;;;;;;;;4993232;28;20030;-66
2021/03/20 06:17:21;;;;;;;7.13;3.97;;;;;;;;;;4993473;28;20023;-64
2021/03/20 06:19:49;;;;;;;4.72;1.65;;;;;;;;;;4992788;28;20034;-64
2021/03/20 06:22:17;;;;;;;6.85;1.38;;;;;;;;;;4993194;28;20057;-65
2021/03/20 06:25:10;;;;;;;5.57;1.20;;;;;;;;;;4988639;28;20046;-64
2021/03/20 06:27:39;;;;;;;6.03;1.40;;;;;;;;;;4993198;28;20058;-64
2021/03/20 06:30:07;;;;;;;14.10;2.58;;;;;;;;;;4993129;28;20464;-64
2021/03/20 06:32:38;;;;;;;3.28;1.25;;;;;;;;;;4992974;28;20113;-64
2021/03/20 06:35:07;;;;;;;2.95;1.25;;;;;;;;;;4993244;28;20022;-64
2021/03/20 06:37:35;;;;;;;1.60;0.70;;;;;;;;;;4992813;28;20098;-64
2021/03/20 06:40:10;;;;;;;4.75;1.33;;;;;;;;;;4986988;28;20029;-64
2021/03/20 06:42:36;;;;;;;5.97;2.25;;;;;;;;;;4992698;28;20366;-64
2021/03/20 06:45:02;;;;;;;8.02;1.27;;;;;;;;;;4987946;28;20379;-64
2021/03/20 06:47:28;;;;;;;4.63;2.25;;;;;;;;;;4992668;28;20026;-64
2021/03/20 06:50:03;;;;;;;3.08;1.48;;;;;;;;;;4992860;28;20038;-64
2021/03/20 06:52:30;;;;;;;4.22;1.27;;;;;;;;;;4992501;28;20038;-64
2021/03/20 06:55:01;;;;;;;7.28;2.42;;;;;;;;;;4992473;28;20062;-64
2021/03/20 06:57:26;;;;;;;5.45;1.73;;;;;;;;;;4992453;28;20441;-64
2021/03/20 06:59:52;;;;;;;4.45;2.22;;;;;;;;;;4992334;28;20037;-64
2021/03/20 07:02:24;;;;;;;4.47;2.20;;;;;;;;;;4992280;28;20101;-64
2021/03/20 07:05:06;;;;;;;5.80;1.58;;;;;;;;;;4992445;28;20434;-64
2021/03/20 07:07:43;;;;;;;3.72;1.17;;;;;;;;;;4988896;28;20066;-64
2021/03/20 07:10:34;;;;;;;15.48;4.65;;;;;;;;;;4992534;28;20393;-64
2021/03/20 07:13:08;;;;;;;7.10;2.30;;;;;;;;;;4988582;28;20049;-64
2021/03/20 07:15:34;;;;;;;4.05;1.95;;;;;;;;;;4992214;28;20138;-64
2021/03/20 07:18:29;;;;;;;3.50;1.13;;;;;;;;;;4992135;28;20055;-64
2021/03/20 07:20:54;;;;;;;1.08;0.57;;;;;;;;;;4979497;28;20074;-64
2021/03/20 07:23:19;;;;;;;6.65;2.00;;;;;;;;;;4989691;28;20061;-64
2021/03/20 07:25:47;;;;;;;1.65;0.80;;;;;;;;;;4992418;28;20376;-64
2021/03/20 07:28:14;;;;;;;4.22;0.73;;;;;;;;;;4992201;28;20101;-64
2021/03/20 07:30:39;;;;;;;3.20;1.65;;;;;;;;;;4991869;28;20034;-64
2021/03/20 07:33:21;;;;;;;1.08;0.60;;;;;;;;;;4992049;28;20496;-64
2021/03/20 07:35:46;;;;;;;0.88;0.32;;;;;;;;;;4992101;28;20058;-63
2021/03/20 07:38:19;;;;;;;1.65;0.40;;;;;;;;;;4991788;28;20457;-64
2021/03/20 07:40:45;;;;;;;0.88;0.50;;;;;;;;;;4992290;28;20146;-64
2021/03/20 07:43:13;;;;;;;1.40;0.17;;;;;;;;;;4991980;28;20768;-64
2021/03/20 07:45:38;;;;;;;0.30;0.20;;;;;;;;;;4974503;28;20037;-64
2021/03/20 07:48:04;;;;;;;0.93;0.52;;;;;;;;;;4988979;28;20034;-64
2021/03/20 07:50:38;;;;;;;0.28;0.20;;;;;;;;;;4991813;28;20401;-64
2021/03/20 07:53:11;;;;;;;1.52;0.68;;;;;;;;;;4990749;28;20106;-64
2021/03/20 07:55:55;;;;;;;7.30;1.73;;;;;;;;;;4992258;28;20034;-65
2021/03/20 07:58:24;;;;;;;4.50;1.15;;;;;;;;;;4993064;28;20019;-64
2021/03/20 08:00:54;;;;;;;3.00;1.42;;;;;;;;;;4993022;28;20133;-65
2021/03/20 08:03:21;;;;;;;1.73;0.85;;;;;;;;;;4991870;28;20131;-64
2021/03/20 08:05:46;;;;;;;3.35;1.75;;;;;;;;;;4991361;28;20501;-64
2021/03/20 08:08:14;;;;;;;1.65;0.82;;;;;;;;;;4987462;28;20022;-63
2021/03/20 08:10:42;;;;;;;15.45;3.47;;;;;;;;;;4991154;28;20105;-64
2021/03/20 08:13:13;;;;;;;5.63;2.00;;;;;;;;;;4991138;28;20065;-64
2021/03/20 08:15:44;;;;;;;3.60;1.20;;;;;;;;;;4989376;28;20030;-64
2021/03/20 08:18:12;;;;;;;3.03;0.98;;;;;;;;;;4991316;28;20038;-64
2021/03/20 08:20:37;;;;;;;1.77;0.70;;;;;;;;;;4991418;28;20023;-62
2021/03/20 08:23:29;;;;;;;8.18;1.23;;;;;;;;;;4986092;28;20092;-64
2021/03/20 08:25:54;;;;;;;2.15;1.92;;;;;;;;;;4971989;28;20034;-64
2021/03/20 08:28:19;;;;;;;4.68;3.05;;;;;;;;;;4995013;28;20045;-64
2021/03/20 08:30:58;;;;;;;4.78;2.70;;;;;;;;;;4995590;28;20385;-64
2021/03/20 08:33:50;;;;;;;8.93;2.25;;;;;;;;;;4995108;28;20114;-64
2021/03/20 08:36:15;;;;;;;1.25;1.00;;;;;;;;;;4971352;28;20523;-64
2021/03/20 08:38:46;;;;;;;0.63;0.32;;;;;;;;;;4988193;28;20038;-64
2021/03/20 08:41:18;;;;;;;4.47;0.60;;;;;;;;;;4995082;28;20108;-64
2021/03/20 08:44:03;;;;;;;9.85;4.05;;;;;;;;;;4995034;28;20169;-64
2021/03/20 08:46:40;;;;;;;9.43;8.48;;;;;;;;;;4994657;28;20035;-64
2021/03/20 08:49:24;;;;;;;0.82;0.52;;;;;;;;;;4994778;28;20424;-64
2021/03/20 08:51:55;;;;;;;2.42;0.50;;;;;;;;;;4992919;28;20031;-64
2021/03/20 08:54:20;;;;;;;;;;;;;;;;;;4994829;28;20018;-64
2021/03/20 08:56:49;;;;;;;1.03;0.73;;;;;;;;;;4990198;28;20462;-64
2021/03/20 08:59:16;;;;;;;1.52;0.90;;;;;;;;;;4994655;28;20284;-64
2021/03/20 09:01:49;;;;;;;0.77;0.50;;;;;;;;;;4992280;28;20051;-64
2021/03/20 09:04:16;;;;;;;7.82;1.05;;;;;;;;;;4990445;28;20511;-64
2021/03/20 09:06:53;;;;;;;2.28;1.23;;;;;;;;;;4988976;28;20469;-63
2021/03/20 09:09:34;;;;;;;2.90;1.58;;;;;;;;;;4991723;28;20361;-63
2021/03/20 09:11:59;;;;;;;9.23;3.20;;;;;;;;;;4981613;28;20109;-62
2021/03/20 09:14:26;;;;;;;9.50;3.17;;;;;;;;;;4984605;28;20473;-60
2021/03/20 09:16:58;;;;;;;6.35;4.85;;;;;;;;;;4986318;28;20363;-60
2021/03/20 09:19:31;;;;;;;2.33;0.80;;;;;;;;;;4983822;28;20481;-60
2021/03/20 09:21:58;;;;;;;5.00;4.20;;;;;;;;;;4985629;28;20035;-60
2021/03/20 09:24:25;;;;;;;0.55;0.45;;;;;;;;;;4986559;28;20161;-60
2021/03/20 09:26:56;;;;;;;3.13;2.38;;;;;;;;;;4985704;28;20094;-63
2021/03/20 09:29:30;;;;;;;5.10;4.60;;;;;;;;;;4981831;28;20065;-63
2021/03/20 09:31:55;;;;;;;14.75;4.25;;;;;;;;;;4990449;28;20027;-68
2021/03/20 09:34:33;;;;;;;6.43;2.15;;;;;;;;;;4988657;28;20080;-68
2021/03/20 09:37:00;;;;;;;4.47;3.17;;;;;;;;;;4982087;28;20106;-68
2021/03/20 09:39:37;;;;;;;5.65;2.13;;;;;;;;;;4982304;28;20014;-67
2021/03/20 09:42:04;;;;;;;5.75;4.15;;;;;;;;;;4972919;28;20033;-69
2021/03/20 09:44:31;;;;;;;11.80;4.80;;;;;;;;;;4990010;28;20033;-69
2021/03/20 09:46:57;;;;;;;1.73;0.93;;;;;;;;;;4989909;28;20031;-67
2021/03/20 09:49:22;;;;;;;2.45;2.03;;;;;;;;;;4988943;28;20051;-68
2021/03/20 09:51:48;;;;;;;5.25;2.63;;;;;;;;;;4990009;28;20018;-68
2021/03/20 09:54:22;;;;;;;5.45;1.70;;;;;;;;;;4990460;28;20127;-68
2021/03/20 09:56:48;;;;;;;9.52;3.70;;;;;;;;;;4989701;28;20084;-69
2021/03/20 09:59:33;;;;;;;13.77;3.22;;;;;;;;;;4987203;28;20416;-69
2021/03/20 10:02:00;;;;;;;4.95;2.85;;;;;;;;;;4993029;28;20106;-68
2021/03/20 10:04:27;;;;;;;5.50;2.88;;;;;;;;;;4993665;28;20711;-72
2021/03/20 10:07:11;;;;;;;7.00;3.05;;;;;;;;;;4993401;28;20080;-70
2021/03/20 10:09:50;;;;;;;16.40;2.25;;;;;;;;;;4990819;28;20094;-69
2021/03/20 10:12:18;;;;;;;3.58;2.30;;;;;;;;;;4993591;28;20748;-68
2021/03/20 10:15:01;;;;;;;7.63;4.20;;;;;;;;;;4992649;28;20030;-69
2021/03/20 10:17:29;;;;;;;5.65;2.08;;;;;;;;;;4976129;28;20117;-69
2021/03/20 10:20:04;;;;;;;11.77;4.72;;;;;;;;;;4993609;28;20022;-68
2021/03/20 10:22:31;;;;;;;4.85;2.88;;;;;;;;;;4993539;28;20057;-68
2021/03/20 10:24:57;;;;;;;12.40;6.30;;;;;;;;;;4993356;28;20054;-68
2021/03/20 10:27:29;;;;;;;12.43;5.40;;;;;;;;;;4985988;28;20073;-68
2021/03/20 10:30:09;;;;;;;7.35;4.78;;;;;;;;;;4990244;28;20038;-61
2021/03/20 10:32:34;;;;;;;3.65;1.83;;;;;;;;;;4993311;28;20061;-60
2021/03/20 10:35:04;;;;;;;26.75;24.10;;;;;;;;;;4992965;28;20058;-62
2021/03/20 10:37:32;;;;;;;20.67;12.90;;;;;;;;;;4988272;28;20529;-60
2021/03/20 10:40:12;;;;;;;13.10;8.52;;;;;;;;;;4990876;28;20516;-61
2021/03/20 10:42:39;;;;;;;15.98;7.43;;;;;;;;;;4993163;28;20031;-60
2021/03/20 10:45:08;;;;;;;10.35;4.10;;;;;;;;;;4991661;28;20509;-60
2021/03/20 10:47:39;;;;;;;9.40;4.13;;;;;;;;;;4992072;28;20026;-68
2021/03/20 10:50:22;;;;;;;8.52;5.20;;;;;;;;;;4992847;28;20377;-68
2021/03/20 10:52:50;;;;;;;10.23;5.22;;;;;;;;;;4992580;28;20019;-67
2021/03/20 10:55:22;;;;;;;13.48;6.88;;;;;;;;;;4992772;28;20034;-67
2021/03/20 10:57:48;;;;;;;4.28;3.63;;;;;;;;;;4992314;28;20027;-67
2021/03/20 11:00:37;;;;;;;13.40;5.53;;;;;;;;;;4989570;28;20035;-67
2021/03/20 11:03:15;;;;;;;9.75;6.75;;;;;;;;;;4992508;28;20023;-67
2021/03/20 11:05:41;;;;;;;12.93;7.43;;;;;;;;;;4992528;28;20161;-67
2021/03/20 11:08:18;;;;;;;33.97;24.83;;;;;;;;;;4992844;28;20037;-68
2021/03/20 11:10:44;;;;;;;18.70;16.38;;;;;;;;;;4988136;28;20157;-69
2021/03/20 11:13:22;;;;;;;26.38;19.02;;;;;;;;;;4992430;28;20102;-69
2021/03/20 11:15:49;;;;;;;14.93;8.65;;;;;;;;;;4991541;28;20109;-69
2021/03/20 11:18:15;;;;;;;14.30;11.27;;;;;;;;;;4975461;28;20072;-68
2021/03/20 11:20:42;;;;;;;10.75;4.88;;;;;;;;;;4993382;28;20465;-66
2021/03/20 11:23:19;;;;;;;21.23;15.60;;;;;;;;;;4993639;28;20049;-60
2021/03/20 11:25:44;;;;;;;15.60;3.78;;;;;;;;;;4993080;28;20037;-69
2021/03/20 11:28:14;;;;;;;27.48;17.85;;;;;;;;;;4992138;28;20030;-68
2021/03/20 11:30:41;;;;;;;51.30;39.85;;;;;;;;;;4992224;28;20026;-61
2021/03/20 11:33:10;;;;;;;35.78;22.90;;;;;;;;;;4991882;28;20080;-64
2021/03/20 11:35:39;;;;;;;20.25;13.80;;;;;;;;;;4991952;28;20033;-64
2021/03/20 11:38:05;;;;;;;12.02;5.82;;;;;;;;;;4991971;28;20072;-64
2021/03/20 11:40:32;;;;;;;19.50;12.50;;;;;;;;;;4992115;28;20457;-64
2021/03/20 11:43:05;;;;;;;22.10;11.43;;;;;;;;;;4988667;28;20468;-64
2021/03/20 11:45:35;;;;;;;7.75;3.72;;;;;;;;;;4991961;28;20133;-64
2021/03/20 11:48:11;;;;;;;5.82;4.30;;;;;;;;;;4991548;28;20386;-66
2021/03/20 11:50:37;;;;;;;19.00;7.28;;;;;;;;;;4991989;28;20041;-66
2021/03/20 11:53:04;;;;;;;5.40;3.60;;;;;;;;;;4991551;28;20381;-66
2021/03/20 11:55:34;;;;;;;6.63;2.75;;;;;;;;;;4986793;28;20027;-66
2021/03/20 11:58:01;;;;;;;14.68;5.60;;;;;;;;;;4973614;28;20031;-65
2021/03/20 12:00:44;;;;;;;6.68;4.03;;;;;;;;;;4991655;28;20045;-65
2021/03/20 12:03:23;;;;;;;6.18;2.72;;;;;;;;;;4973966;28;20061;-64
2021/03/20 12:05:49;;;;;;;10.27;5.45;;;;;;;;;;4979470;28;20054;-64
2021/03/20 12:08:21;;;;;;;8.30;4.57;;;;;;;;;;4975606;28;20111;-65
2021/03/20 12:11:06;;;;;;;6.43;4.00;;;;;;;;;;4978275;28;20019;-65
2021/03/20 12:13:38;;;;;;;6.70;3.88;;;;;;;;;;4976215;28;20039;-64
2021/03/20 12:16:04;;;;;;;7.72;4.28;;;;;;;;;;4976073;28;20041;-66
2021/03/20 12:18:31;;;;;;;18.52;6.05;;;;;;;;;;4978537;28;20027;-65
2021/03/20 12:21:02;;;;;;;8.93;4.60;;;;;;;;;;4988087;28;20401;-66
2021/03/20 12:23:29;;;;;;;13.73;6.25;;;;;;;;;;4986388;28;20403;-65
2021/03/20 12:25:55;;;;;;;4.60;2.90;;;;;;;;;;4989798;28;20038;-61
2021/03/20 12:28:41;;;;;;;13.77;5.10;;;;;;;;;;4990578;28;20413;-61
2021/03/20 12:31:12;;;;;;;15.05;5.90;;;;;;;;;;4988061;28;20432;-61
2021/03/20 12:33:56;;;;;;;15.77;8.68;;;;;;;;;;4984085;28;20038;-61
2021/03/20 12:36:30;;;;;;;8.00;4.32;;;;;;;;;;4990440;28;20478;-62
2021/03/20 12:38:56;;;;;;;16.00;7.43;;;;;;;;;;4990396;28;20014;-61
2021/03/20 12:41:23;;;;;;;10.48;5.60;;;;;;;;;;4991064;28;20037;-61
2021/03/20 12:44:06;;;;;;;20.13;6.53;;;;;;;;;;4990880;28;20029;-61
2021/03/20 12:46:32;;;;;;;15.13;5.55;;;;;;;;;;4991037;28;20061;-61
2021/03/20 12:48:57;;;;;;;8.25;4.50;;;;;;;;;;4989476;28;20086;-61
2021/03/20 12:51:23;;;;;;;27.05;7.60;;;;;;;;;;4991154;28;20038;-61
2021/03/20 12:53:48;;;;;;;14.57;7.18;;;;;;;;;;4990934;28;20025;-61
2021/03/20 12:56:13;;;;;;;8.00;4.88;;;;;;;;;;4991375;28;20022;-61
2021/03/20 12:58:39;;;;;;;14.35;6.65;;;;;;;;;;4991057;28;20030;-61
2021/03/20 13:01:04;;;;;;;8.18;5.97;;;;;;;;;;4991058;28;20173;-61
2021/03/20 13:03:33;;;;;;;15.38;7.25;;;;;;;;;;4990993;28;20045;-61
2021/03/20 13:05:58;;;;;;;15.77;5.22;;;;;;;;;;4991115;28;20041;-61
2021/03/20 13:08:23;;;;;;;8.93;3.80;;;;;;;;;;4991099;28;20031;-61
2021/03/20 13:10:49;;;;;;;23.38;7.50;;;;;;;;;;4982560;28;20031;-61
2021/03/20 13:13:14;;;;;;;14.38;5.25;;;;;;;;;;4989191;28;20041;-61
2021/03/20 13:15:39;;;;;;;11.88;6.43;;;;;;;;;;4991432;28;20055;-60
2021/03/20 13:18:05;;;;;;;13.73;6.53;;;;;;;;;;4993945;28;20023;-61
2021/03/20 13:20:30;;;;;;;17.63;9.88;;;;;;;;;;4994169;28;20022;-61
2021/03/20 13:22:55;;;;;;;7.50;5.38;;;;;;;;;;4992663;28;20027;-60
2021/03/20 13:25:23;;;;;;;15.70;9.50;;;;;;;;;;4993913;28;20027;-61
2021/03/20 13:27:49;;;;;;;14.38;6.40;;;;;;;;;;4993317;28;20026;-61
2021/03/20 13:30:15;;;;;;;14.27;6.90;;;;;;;;;;4992957;28;20030;-59
2021/03/20 13:32:40;;;;;;;11.43;6.30;;;;;;;;;;4991356;28;20031;-60
2021/03/20 13:35:06;;;;;;;18.15;6.82;;;;;;;;;;4992773;28;20367;-59
2021/03/20 13:37:31;;;;;;;26.48;15.60;;;;;;;;;;4993737;28;20030;-60
2021/03/20 13:39:56;;;;;;;21.98;15.10;;;;;;;;;;4994245;28;20037;-60
2021/03/20 13:42:22;;;;;;;18.02;8.10;;;;;;;;;;4993318;28;20418;-60
2021/03/20 13:44:47;;;;;;;23.30;13.73;;;;;;;;;;4993446;28;20023;-60
2021/03/20 13:47:12;;;;;;;37.15;23.27;;;;;;;;;;4991159;28;20099;-60
2021/03/20 13:49:38;;;;;;;18.98;12.63;;;;;;;;;;4988524;28;20031;-60
2021/03/20 13:52:03;;;;;;;25.20;13.32;;;;;;;;;;4991238;28;20027;-61
2021/03/20 13:54:28;;;;;;;16.23;9.27;;;;;;;;;;4993868;28;20051;-61
2021/03/20 13:56:54;;;;;;;24.02;11.05;;;;;;;;;;4985595;28;20140;-61
2021/03/20 13:59:19;;;;;;;18.05;10.15;;;;;;;;;;4979371;28;20038;-60
2021/03/20 14:01:44;;;;;;;27.02;16.05;;;;;;;;;;4978857;28;20050;-59
2021/03/20 14:04:10;;;;;;;17.38;6.35;;;;;;;;;;4979405;28;20362;-60
2021/03/20 14:06:35;;;;;;;15.18;6.65;;;;;;;;;;4976068;28;20417;-60
2021/03/20 14:09:01;;;;;;;20.20;8.75;;;;;;;;;;4982112;28;20018;-61
2021/03/20 14:11:26;;;;;;;19.38;7.55;;;;;;;;;;4987291;28;20045;-60
2021/03/20 14:13:51;;;;;;;16.85;7.45;;;;;;;;;;4990948;28;20030;-60
2021/03/20 14:16:17;;;;;;;30.48;6.72;;;;;;;;;;4990395;28;20045;-60
2021/03/20 14:18:42;;;;;;;23.85;9.75;;;;;;;;;;4993238;28;20462;-60
2021/03/20 14:21:08;;;;;;;21.13;9.10;;;;;;;;;;4993399;28;20022;-60
2021/03/20 14:23:33;;;;;;;20.83;11.55;;;;;;;;;;4991496;28;20036;-60
2021/03/20 14:25:59;;;;;;;11.95;7.53;;;;;;;;;;4993518;28;20026;-60
2021/03/20 14:28:28;;;;;;;25.63;10.52;;;;;;;;;;4990941;28;20185;-60
2021/03/20 14:30:55;;;;;;;19.77;12.05;;;;;;;;;;4991121;28;20031;-60
2021/03/20 14:33:21;;;;;;;23.48;10.55;;;;;;;;;;4993212;28;20030;-61
2021/03/20 14:35:47;;;;;;;20.48;10.18;;;;;;;;;;4992045;28;20457;-60
2021/03/20 14:38:13;;;;;;;21.38;8.65;;;;;;;;;;4987141;28;20030;-61
2021/03/20 14:40:40;;;;;;;16.88;7.68;;;;;;;;;;4993419;28;20030;-67
2021/03/20 14:43:06;;;;;;;19.65;8.45;;;;;;;;;;4979556;28;20015;-66
2021/03/20 14:45:31;;;;;;;8.75;7.10;;;;;;;;;;4993083;28;20023;-66
2021/03/20 14:47:57;;;;;;;16.65;7.50;;;;;;;;;;4972564;28;20034;-69
2021/03/20 14:50:24;;;;;;;13.88;10.13;;;;;;;;;;4986785;28;20034;-66
2021/03/20 14:52:50;;;;;;;24.63;12.15;;;;;;;;;;4983180;28;20169;-66